createdAt,value
2022-10-20T00:01:20.276Z,84.65
2022-10-20T00:03:49.433Z,85.19
2022-10-20T00:06:20.289Z,84.90
2022-10-20T00:08:49.565Z,85.40
2022-10-20T00:11:21.261Z,85.62
2022-10-20T00:13:51.147Z,85.35
2022-10-20T00:16:21.464Z,85.63
2022-10-20T00:18:50.054Z,85.47
2022-10-20T00:21:20.168Z,85.99
2022-10-20T00:23:48.846Z,85.96
2022-10-20T00:26:19.475Z,86.62
2022-10-20T00:28:48.222Z,86.99
2022-10-20T00:31:17.540Z,87.32
2022-10-20T00:33:47.712Z,87.27
2022-10-20T00:36:17.759Z,87.46
2022-10-20T00:38:46.516Z,87.79
2022-10-20T00:41:15.625Z,88.50
2022-10-20T00:43:49.961Z,88.61
2022-10-20T00:46:21.572Z,89.18
2022-10-20T00:48:53.505Z,90.06
2022-10-20T00:51:24.552Z,90.79
2022-10-20T00:53:55.088Z,91.12
2022-10-20T00:56:24.371Z,91.62
2022-10-20T00:58:53.051Z,92.11
2022-10-20T01:01:21.444Z,92.14
2022-10-20T01:03:53.174Z,92.26
2022-10-20T01:06:23.379Z,92.63
2022-10-20T01:08:52.959Z,93.27
2022-10-20T01:11:28.714Z,93.79
2022-10-20T01:14:14.237Z,93.75
2022-10-20T01:16:50.214Z,93.37
2022-10-20T01:19:38.106Z,93.61
2022-10-20T01:22:21.655Z,94.70
2022-10-20T01:25:00.425Z,94.60
2022-10-20T01:27:33.403Z,94.75
2022-10-20T01:30:10.040Z,95.09
2022-10-20T01:32:50.932Z,95.49
2022-10-20T01:35:25.701Z,96.78
2022-10-20T01:37:57.834Z,96.24
2022-10-20T01:40:30.115Z,96.70
2022-10-20T01:43:02.051Z,97.70
2022-10-20T01:45:34.317Z,98.69
2022-10-20T01:48:06.003Z,99.73
2022-10-20T01:50:35.434Z,100.00
2022-10-20T01:53:03.923Z,100.00
2022-10-20T01:55:33.011Z,100.00
2022-10-20T01:58:16.796Z,100.00
2022-10-20T02:00:46.882Z,100.00
2022-10-20T02:03:27.329Z,100.00
2022-10-20T02:06:05.602Z,100.00
2022-10-20T02:08:38.445Z,100.00
2022-10-20T02:11:08.232Z,100.00
2022-10-20T02:13:40.114Z,100.00
2022-10-20T02:16:11.563Z,100.00
2022-10-20T02:18:42.430Z,100.00
2022-10-20T02:21:11.880Z,100.00
2022-10-20T02:23:41.661Z,100.00
2022-10-20T02:26:11.360Z,100.00
2022-10-20T02:28:43.527Z,100.00
2022-10-20T02:31:12.412Z,100.00
2022-10-20T02:33:45.375Z,100.00
2022-10-20T02:36:16.883Z,100.00
2022-10-20T02:38:45.823Z,100.00
2022-10-20T02:41:15.065Z,100.00
2022-10-20T02:43:44.956Z,100.00
2022-10-20T02:46:13.448Z,100.00
2022-10-20T02:48:41.860Z,100.00
2022-10-20T02:51:10.568Z,100.00
2022-10-20T02:53:39.080Z,100.00
2022-10-20T02:56:07.746Z,100.00
2022-10-20T02:58:36.353Z,100.00
2022-10-20T03:01:06.559Z,100.00
2022-10-20T03:03:35.236Z,100.00
2022-10-20T03:06:09.761Z,100.00
2022-10-20T03:08:38.205Z,100.00
2022-10-20T03:11:08.311Z,100.00
2022-10-20T03:13:37.208Z,100.00
2022-10-20T03:16:07.920Z,100.00
2022-10-20T03:18:36.494Z,100.00
2022-10-20T03:21:05.320Z,100.00
2022-10-20T03:23:33.795Z,100.00
2022-10-20T03:26:05.733Z,100.00
2022-10-20T03:28:35.713Z,100.00
2022-10-20T03:31:05.701Z,100.00
2022-10-20T03:33:36.198Z,100.00
2022-10-20T03:36:05.354Z,100.00
2022-10-20T03:38:33.770Z,100.00
2022-10-20T03:43:30.515Z,100.00
2022-10-20T03:46:05.884Z,100.00
2022-10-20T03:48:36.066Z,100.00
2022-10-20T03:51:05.075Z,100.00
2022-10-20T03:53:33.797Z,100.00
2022-10-20T03:56:06.889Z,100.00
2022-10-20T03:58:35.525Z,100.00
2022-10-20T04:01:04.249Z,100.00
2022-10-20T04:03:32.566Z,100.00
2022-10-20T04:06:02.613Z,100.00
2022-10-20T04:08:31.100Z,100.00
2022-10-20T04:10:59.783Z,100.00
2022-10-20T04:13:28.068Z,100.00
2022-10-20T04:15:56.596Z,100.00
2022-10-20T04:18:24.949Z,100.00
2022-10-20T04:20:53.399Z,100.00
2022-10-20T04:23:22.913Z,100.00
2022-10-20T04:25:51.277Z,100.00
2022-10-20T04:28:21.469Z,100.00
2022-10-20T04:30:50.226Z,100.00
2022-10-20T04:33:18.712Z,100.00
2022-10-20T04:35:47.026Z,100.00
2022-10-20T04:38:15.380Z,100.00
2022-10-20T04:40:45.302Z,100.00
2022-10-20T04:43:13.945Z,100.00
2022-10-20T04:45:42.777Z,100.00
2022-10-20T04:48:11.236Z,100.00
2022-10-20T04:50:39.929Z,100.00
2022-10-20T04:53:09.210Z,100.00
2022-10-20T04:55:37.869Z,100.00
2022-10-20T04:58:07.930Z,100.00
2022-10-20T05:00:38.343Z,100.00
2022-10-20T05:03:06.758Z,100.00
2022-10-20T05:05:35.287Z,100.00
2022-10-20T05:08:03.687Z,100.00
2022-10-20T05:10:35.824Z,100.00
2022-10-20T05:13:05.436Z,100.00
2022-10-20T05:15:35.930Z,100.00
2022-10-20T05:18:04.886Z,100.00
2022-10-20T05:20:41.033Z,100.00
2022-10-20T05:23:10.665Z,100.00
2022-10-20T05:25:42.920Z,100.00
2022-10-20T05:28:13.153Z,100.00
2022-10-20T05:30:43.370Z,100.00
2022-10-20T05:33:12.681Z,100.00
2022-10-20T05:35:40.935Z,100.00
2022-10-20T05:38:09.420Z,100.00
2022-10-20T05:40:38.187Z,100.00
2022-10-20T05:43:06.583Z,100.00
2022-10-20T05:45:36.668Z,100.00
2022-10-20T05:48:06.752Z,100.00
2022-10-20T05:50:35.397Z,100.00
2022-10-20T05:53:04.369Z,100.00
2022-10-20T05:55:32.850Z,100.00
2022-10-20T05:58:01.476Z,100.00
2022-10-20T06:00:32.839Z,100.00
2022-10-20T06:03:02.610Z,100.00
2022-10-20T06:05:33.309Z,100.00
2022-10-20T06:08:01.921Z,100.00
2022-10-20T06:10:30.325Z,100.00
2022-10-20T06:12:59.505Z,100.00
2022-10-20T06:15:28.410Z,100.00
2022-10-20T06:17:57.494Z,100.00
2022-10-20T06:20:26.301Z,100.00
2022-10-20T06:22:56.186Z,100.00
2022-10-20T06:25:24.547Z,100.00
2022-10-20T06:27:52.996Z,100.00
2022-10-20T06:30:21.835Z,100.00
2022-10-20T06:32:55.241Z,100.00
2022-10-20T06:35:23.712Z,100.00
2022-10-20T06:37:52.401Z,100.00
2022-10-20T06:40:22.128Z,100.00
2022-10-20T06:42:50.905Z,100.00
2022-10-20T06:45:19.893Z,100.00
2022-10-20T06:47:48.834Z,100.00
2022-10-20T06:50:17.197Z,100.00
2022-10-20T06:52:46.068Z,100.00
2022-10-20T06:55:14.950Z,100.00
2022-10-20T06:57:44.969Z,100.00
2022-10-20T07:00:14.393Z,100.00
2022-10-20T07:02:43.451Z,100.00
2022-10-20T07:05:13.205Z,100.00
2022-10-20T07:07:42.344Z,100.00
2022-10-20T07:10:11.420Z,98.35
2022-10-20T07:12:40.701Z,98.30
2022-10-20T07:15:11.995Z,97.79
2022-10-20T07:17:40.843Z,96.89
2022-10-20T07:20:10.583Z,95.06
2022-10-20T07:22:39.573Z,95.87
2022-10-20T07:25:09.542Z,94.94
2022-10-20T07:27:38.872Z,95.00
2022-10-20T07:30:08.519Z,94.64
2022-10-20T07:32:38.768Z,94.41
2022-10-20T07:35:08.042Z,93.25
2022-10-20T07:37:36.942Z,92.18
2022-10-20T07:40:06.447Z,92.22
2022-10-20T07:42:35.369Z,92.33
2022-10-20T07:45:04.678Z,92.92
2022-10-20T07:47:38.177Z,89.41
2022-10-20T07:50:13.127Z,88.73
2022-10-20T07:52:41.799Z,86.12
2022-10-20T07:55:17.730Z,84.32
2022-10-20T07:57:53.909Z,82.48
2022-10-20T08:00:22.359Z,80.59
2022-10-20T08:02:53.906Z,79.85
2022-10-20T08:05:24.961Z,76.19
2022-10-20T08:07:54.191Z,75.06
2022-10-20T08:10:23.351Z,73.39
2022-10-20T08:12:52.270Z,74.64
2022-10-20T08:15:23.437Z,73.66
2022-10-20T08:17:51.777Z,71.83
2022-10-20T08:20:22.395Z,70.20
2022-10-20T08:22:55.123Z,71.60
2022-10-20T08:25:23.585Z,70.33
2022-10-20T08:27:52.109Z,66.03
2022-10-20T08:30:23.743Z,59.36
2022-10-20T08:32:53.761Z,53.06
2022-10-20T08:35:22.205Z,49.38
2022-10-20T08:37:50.642Z,47.09
2022-10-20T08:40:24.432Z,47.34
2022-10-20T08:42:53.419Z,47.71
2022-10-20T08:45:24.810Z,49.14
2022-10-20T08:47:55.811Z,50.15
2022-10-20T08:50:27.938Z,52.16
2022-10-20T08:52:59.809Z,53.29
2022-10-20T08:55:31.752Z,55.82
2022-10-20T08:58:02.757Z,57.57
2022-10-20T09:00:31.663Z,59.10
2022-10-20T09:03:04.268Z,61.14
2022-10-20T09:05:34.644Z,60.77
2022-10-20T09:08:03.165Z,59.74
2022-10-20T09:10:36.295Z,60.67
2022-10-20T09:13:12.978Z,59.32
2022-10-20T09:15:41.443Z,56.70
2022-10-20T09:18:13.204Z,55.48
2022-10-20T09:20:46.327Z,54.36
2022-10-20T09:23:38.879Z,56.73
2022-10-20T09:26:06.042Z,56.35
2022-10-20T09:28:55.358Z,53.23
2022-10-20T09:31:25.849Z,50.16
2022-10-20T09:33:54.061Z,49.09
2022-10-20T09:36:23.222Z,49.12
2022-10-20T09:38:54.015Z,46.40
2022-10-20T09:41:27.377Z,47.70
2022-10-20T09:43:58.175Z,45.66
2022-10-20T09:46:30.263Z,44.07
2022-10-20T09:48:59.651Z,42.34
2022-10-20T09:51:29.764Z,38.51
2022-10-20T09:54:01.123Z,37.66
2022-10-20T09:56:32.765Z,37.80
2022-10-20T09:59:03.279Z,40.26
2022-10-20T10:01:32.182Z,38.96
2022-10-20T10:04:02.288Z,37.31
2022-10-20T10:06:35.022Z,36.96
2022-10-20T10:09:04.001Z,36.12
2022-10-20T10:11:37.630Z,35.45
2022-10-20T10:14:07.024Z,35.22
2022-10-20T10:16:43.255Z,34.21
2022-10-20T10:19:17.692Z,36.03
2022-10-20T10:21:49.079Z,37.34
2022-10-20T10:24:41.351Z,36.13
2022-10-20T10:27:25.271Z,34.45
2022-10-20T10:29:54.537Z,31.97
2022-10-20T10:32:26.695Z,33.67
2022-10-20T10:35:13.516Z,34.15
2022-10-20T10:37:43.609Z,32.38
2022-10-20T10:40:18.133Z,32.56
2022-10-20T10:43:09.785Z,34.74
2022-10-20T10:45:46.710Z,33.76
2022-10-20T10:48:46.627Z,31.99
2022-10-20T10:51:23.592Z,33.11
2022-10-20T10:54:01.237Z,32.25
2022-10-20T10:56:35.970Z,32.77
2022-10-20T10:59:08.426Z,34.04
2022-10-20T11:01:51.045Z,34.79
2022-10-20T11:04:54.233Z,37.04
2022-10-20T11:07:31.701Z,38.16
2022-10-20T11:10:11.128Z,39.80
2022-10-20T11:12:52.024Z,39.87
2022-10-20T11:15:41.740Z,41.95
2022-10-20T11:18:15.115Z,44.05
2022-10-20T11:20:48.760Z,46.66
2022-10-20T11:23:43.784Z,51.65
2022-10-20T11:26:16.363Z,53.05
2022-10-20T11:28:47.305Z,52.17
2022-10-20T11:31:30.094Z,50.96
2022-10-20T11:34:04.682Z,49.72
2022-10-20T11:36:37.370Z,48.56
2022-10-20T11:39:08.002Z,47.48
2022-10-20T11:44:15.373Z,53.04
2022-10-20T11:46:48.928Z,54.34
2022-10-20T11:49:17.821Z,53.40
2022-10-20T11:52:01.875Z,54.57
2022-10-20T11:54:43.671Z,51.90
2022-10-20T11:57:21.881Z,51.76
2022-10-20T12:03:15.582Z,51.94
2022-10-20T12:06:00.538Z,50.38
2022-10-20T12:08:37.639Z,49.45
2022-10-20T12:11:12.424Z,50.66
2022-10-20T12:13:49.597Z,50.66
2022-10-20T12:16:51.203Z,49.62
2022-10-20T12:19:22.508Z,49.28
2022-10-20T12:21:58.522Z,49.58
2022-10-20T12:24:37.171Z,50.11
2022-10-20T12:27:27.787Z,49.52
2022-10-20T12:30:39.209Z,49.82
2022-10-20T12:33:18.868Z,49.49
2022-10-20T12:36:15.792Z,52.57
2022-10-20T12:38:44.782Z,53.03
2022-10-20T12:41:25.424Z,51.73
2022-10-20T12:43:55.625Z,51.64
2022-10-20T12:46:27.949Z,49.25
2022-10-20T12:49:00.519Z,49.44
2022-10-20T12:51:37.192Z,49.64
2022-10-20T12:54:11.137Z,49.54
2022-10-20T12:56:41.493Z,49.04
2022-10-20T12:59:26.198Z,47.48
2022-10-20T13:02:40.542Z,42.98
2022-10-20T13:05:43.742Z,38.84
2022-10-20T13:08:24.827Z,36.13
2022-10-20T13:10:55.157Z,34.91
2022-10-20T13:13:44.300Z,33.97
2022-10-20T13:16:23.634Z,35.34
2022-10-20T13:18:54.091Z,36.95
2022-10-20T13:21:28.665Z,35.81
2022-10-20T13:24:03.294Z,34.70
2022-10-20T13:26:34.109Z,33.47
2022-10-20T13:29:03.337Z,32.70
2022-10-20T13:31:34.752Z,33.96
2022-10-20T13:34:07.598Z,34.08
2022-10-20T13:36:51.598Z,34.94
2022-10-20T13:39:23.690Z,35.33
2022-10-20T13:41:59.755Z,34.52
2022-10-20T13:44:33.842Z,33.36
2022-10-20T13:47:10.054Z,32.75
2022-10-20T13:49:52.891Z,32.61
2022-10-20T13:52:23.120Z,32.62
2022-10-20T13:54:52.497Z,33.35
2022-10-20T13:57:27.942Z,32.13
2022-10-20T13:59:57.614Z,33.22
2022-10-20T14:02:28.927Z,33.91
2022-10-20T14:05:09.341Z,35.20
2022-10-20T14:07:42.139Z,34.05
2022-10-20T14:10:22.970Z,32.66
2022-10-20T14:12:51.313Z,33.94
2022-10-20T14:15:25.035Z,35.05
2022-10-20T14:18:01.299Z,36.17
2022-10-20T14:20:30.728Z,40.18
2022-10-20T14:23:02.507Z,42.33
2022-10-20T14:25:31.649Z,43.88
2022-10-20T14:28:02.828Z,44.95
2022-10-20T14:30:35.386Z,45.54
2022-10-20T14:33:07.434Z,45.16
2022-10-20T14:35:42.632Z,45.83
2022-10-20T14:38:19.529Z,45.54
2022-10-20T14:40:52.817Z,46.30
2022-10-20T14:43:23.893Z,46.07
2022-10-20T14:45:55.446Z,45.92
2022-10-20T14:48:25.494Z,45.04
2022-10-20T14:50:55.188Z,43.50
2022-10-20T14:53:35.492Z,43.26
2022-10-20T14:56:04.797Z,44.87
2022-10-20T14:58:58.761Z,45.71
2022-10-20T15:01:31.940Z,49.48
2022-10-20T15:04:18.337Z,52.01
2022-10-20T15:06:48.159Z,53.73
2022-10-20T15:09:21.599Z,54.91
2022-10-20T15:11:51.975Z,56.35
2022-10-20T15:14:20.480Z,56.37
2022-10-20T15:16:50.300Z,58.77
2022-10-20T15:19:31.544Z,59.45
2022-10-20T15:22:03.099Z,60.93
2022-10-20T15:24:33.052Z,63.24
2022-10-20T15:27:03.333Z,63.74
2022-10-20T15:29:32.328Z,66.21
2022-10-20T15:32:01.299Z,66.81
2022-10-20T15:34:29.625Z,67.95
2022-10-20T15:36:58.382Z,68.54
2022-10-20T15:39:27.101Z,69.71
2022-10-20T15:41:57.268Z,70.51
2022-10-20T15:44:25.631Z,70.99
2022-10-20T15:46:54.815Z,72.70
2022-10-20T15:49:24.098Z,75.62
2022-10-20T15:51:52.869Z,78.52
2022-10-20T15:54:22.729Z,80.50
2022-10-20T15:56:51.486Z,81.51
2022-10-20T15:59:21.174Z,83.93
2022-10-20T16:01:49.700Z,85.44
2022-10-20T16:04:21.849Z,84.87
2022-10-20T16:06:57.768Z,86.34
2022-10-20T16:09:28.739Z,88.21
2022-10-20T16:11:57.244Z,88.34
2022-10-20T16:14:29.649Z,88.96
2022-10-20T16:17:02.079Z,89.63
2022-10-20T16:19:30.567Z,90.24
2022-10-20T16:21:58.881Z,92.22
2022-10-20T16:24:27.283Z,91.39
2022-10-20T16:26:55.820Z,92.67
2022-10-20T16:29:24.350Z,93.26
2022-10-20T16:31:54.330Z,93.19
2022-10-20T16:34:22.581Z,94.74
2022-10-20T16:36:51.156Z,94.46
2022-10-20T16:39:19.797Z,95.15
2022-10-20T16:41:48.205Z,97.54
2022-10-20T16:44:16.883Z,98.01
2022-10-20T16:46:45.407Z,98.23
2022-10-20T16:49:15.206Z,97.78
2022-10-20T16:51:43.652Z,98.57
2022-10-20T16:54:12.129Z,98.80
2022-10-20T16:56:41.041Z,98.20
2022-10-20T16:59:10.835Z,98.67
2022-10-20T17:01:39.739Z,98.87
2022-10-20T17:04:08.894Z,99.82
2022-10-20T17:06:39.880Z,100.00
2022-10-20T17:09:09.365Z,100.00
2022-10-20T17:11:37.939Z,100.00
2022-10-20T17:14:06.574Z,100.00
2022-10-20T17:16:38.340Z,100.00
2022-10-20T17:19:08.553Z,100.00
2022-10-20T17:21:38.753Z,99.92
2022-10-20T17:24:11.803Z,99.38
2022-10-20T17:26:41.335Z,100.00
2022-10-20T17:29:09.780Z,100.00
2022-10-20T17:31:38.701Z,100.00
2022-10-20T17:34:07.310Z,100.00
2022-10-20T17:36:40.351Z,100.00
2022-10-20T17:39:10.716Z,100.00
2022-10-20T17:41:39.976Z,100.00
2022-10-20T17:44:11.795Z,100.00
2022-10-20T17:46:43.117Z,100.00
2022-10-20T17:49:12.107Z,100.00
2022-10-20T17:51:44.277Z,100.00
2022-10-20T17:54:13.510Z,100.00
2022-10-20T17:56:42.041Z,100.00
2022-10-20T18:01:45.376Z,100.00
2022-10-20T18:04:16.082Z,100.00
2022-10-20T18:06:46.681Z,100.00
2022-10-20T18:09:17.399Z,100.00
2022-10-20T18:11:47.878Z,100.00
2022-10-20T18:14:17.220Z,100.00
2022-10-20T18:16:46.119Z,100.00
2022-10-20T18:19:19.090Z,100.00
2022-10-20T18:21:49.101Z,100.00
2022-10-20T18:24:19.050Z,100.00
2022-10-20T18:26:48.382Z,100.00
2022-10-20T18:29:18.801Z,100.00
2022-10-20T18:31:48.465Z,100.00
2022-10-20T18:34:20.645Z,100.00
2022-10-20T18:36:52.067Z,100.00
2022-10-20T18:39:20.478Z,100.00
2022-10-20T18:41:54.963Z,100.00
2022-10-20T18:44:24.133Z,100.00
2022-10-20T18:47:00.134Z,100.00
2022-10-20T18:49:28.604Z,100.00
2022-10-20T18:51:58.791Z,100.00
2022-10-20T18:54:28.375Z,100.00
2022-10-20T18:56:57.163Z,100.00
2022-10-20T18:59:25.834Z,100.00
2022-10-20T19:01:54.429Z,100.00
2022-10-20T19:04:22.829Z,100.00
2022-10-20T19:06:52.461Z,100.00
2022-10-20T19:09:22.839Z,100.00
2022-10-20T19:11:51.936Z,100.00
2022-10-20T19:14:20.230Z,100.00
2022-10-20T19:16:50.041Z,100.00
2022-10-20T19:19:18.653Z,100.00
2022-10-20T19:21:47.554Z,100.00
2022-10-20T19:24:17.481Z,100.00
2022-10-20T19:26:57.495Z,100.00
2022-10-20T19:29:37.639Z,100.00
2022-10-20T19:32:06.889Z,100.00
2022-10-20T19:34:39.435Z,100.00
2022-10-20T19:37:09.162Z,100.00
2022-10-20T19:39:40.295Z,100.00
2022-10-20T19:42:11.322Z,100.00
2022-10-20T19:44:40.254Z,100.00
2022-10-20T19:47:09.552Z,100.00
2022-10-20T19:49:38.947Z,100.00
2022-10-20T19:52:08.858Z,100.00
2022-10-20T19:54:37.380Z,100.00
2022-10-20T19:57:06.500Z,100.00
2022-10-20T19:59:36.725Z,100.00
2022-10-20T20:02:05.760Z,100.00
2022-10-20T20:04:34.316Z,100.00
2022-10-20T20:07:03.248Z,100.00
2022-10-20T20:09:32.538Z,100.00
2022-10-20T20:12:01.008Z,100.00
2022-10-20T20:14:29.714Z,100.00
2022-10-20T20:16:59.822Z,100.00
2022-10-20T20:19:28.309Z,100.00
2022-10-20T20:21:56.896Z,100.00
2022-10-20T20:24:25.282Z,100.00
2022-10-20T20:26:53.903Z,100.00
2022-10-20T20:29:22.127Z,100.00
2022-10-20T20:31:50.624Z,100.00
2022-10-20T20:34:21.466Z,100.00
2022-10-20T20:36:50.282Z,100.00
2022-10-20T20:39:18.947Z,100.00
2022-10-20T20:41:48.034Z,100.00
2022-10-20T20:44:17.151Z,100.00
2022-10-20T20:46:45.979Z,100.00
2022-10-20T20:49:15.835Z,100.00
2022-10-20T20:51:46.021Z,100.00
2022-10-20T20:54:14.605Z,100.00
2022-10-20T20:56:44.004Z,100.00
2022-10-20T20:59:14.715Z,100.00
2022-10-20T21:01:45.562Z,100.00
2022-10-20T21:04:15.097Z,100.00
2022-10-20T21:07:02.524Z,100.00
2022-10-20T21:09:31.867Z,100.00
2022-10-20T21:12:01.714Z,100.00
2022-10-20T21:14:30.935Z,100.00
2022-10-20T21:16:59.516Z,100.00
2022-10-20T21:19:28.463Z,100.00
2022-10-20T21:21:58.992Z,100.00
2022-10-20T21:24:28.613Z,100.00
2022-10-20T21:27:02.803Z,100.00
2022-10-20T21:29:31.539Z,100.00
2022-10-20T21:32:00.139Z,100.00
2022-10-20T21:34:28.727Z,100.00
2022-10-20T21:36:59.601Z,100.00
2022-10-20T21:39:28.443Z,100.00
2022-10-20T21:41:57.116Z,100.00
2022-10-20T21:44:25.892Z,100.00
2022-10-20T21:46:55.828Z,100.00
2022-10-20T21:49:26.588Z,100.00
2022-10-20T21:51:56.505Z,100.00
2022-10-20T21:54:28.173Z,100.00
2022-10-20T21:56:57.536Z,100.00
2022-10-20T21:59:27.100Z,100.00
2022-10-20T22:01:56.766Z,100.00
2022-10-20T22:04:27.350Z,100.00
2022-10-20T22:06:56.699Z,100.00
2022-10-20T22:09:26.792Z,100.00
2022-10-20T22:11:56.842Z,100.00
2022-10-20T22:14:25.373Z,100.00
2022-10-20T22:16:55.628Z,100.00
2022-10-20T22:19:25.069Z,100.00
2022-10-20T22:21:54.213Z,100.00
2022-10-20T22:24:23.300Z,100.00
2022-10-20T22:26:54.284Z,100.00
2022-10-20T22:29:23.441Z,100.00
2022-10-20T22:31:52.022Z,100.00
2022-10-20T22:34:20.437Z,100.00
2022-10-20T22:36:51.682Z,100.00
2022-10-20T22:39:20.156Z,100.00
2022-10-20T22:41:48.686Z,100.00
2022-10-20T22:44:18.892Z,100.00
2022-10-20T22:46:47.537Z,100.00
2022-10-20T22:49:17.074Z,100.00
2022-10-20T22:51:45.450Z,100.00
2022-10-20T22:54:13.977Z,100.00
2022-10-20T22:56:42.755Z,100.00
2022-10-20T22:59:11.364Z,100.00
2022-10-20T23:01:41.007Z,100.00
2022-10-20T23:04:09.488Z,100.00
2022-10-20T23:06:38.948Z,100.00
2022-10-20T23:09:07.300Z,100.00
2022-10-20T23:11:36.105Z,100.00
2022-10-20T23:14:04.605Z,100.00
2022-10-20T23:16:33.136Z,100.00
2022-10-20T23:19:03.042Z,100.00
2022-10-20T23:21:31.503Z,100.00
2022-10-20T23:23:59.814Z,100.00
2022-10-20T23:26:28.384Z,100.00
2022-10-20T23:28:57.103Z,100.00
2022-10-20T23:31:25.519Z,100.00
2022-10-20T23:33:56.645Z,100.00
2022-10-20T23:36:26.644Z,100.00
2022-10-20T23:38:55.310Z,100.00
2022-10-20T23:41:24.207Z,100.00
2022-10-20T23:43:52.754Z,100.00
2022-10-20T23:46:21.058Z,100.00
2022-10-20T23:48:49.518Z,100.00
2022-10-20T23:51:17.739Z,100.00
2022-10-20T23:53:47.704Z,100.00
2022-10-20T23:56:16.483Z,100.00
2022-10-20T23:58:44.885Z,100.00
